Time,TemperatureF,DewpointF,PressureIn,WindDirection,WindDirectionDegrees,WindSpeedMPH,WindSpeedGustMPH,Humidity,HourlyPrecipIn,Conditions,Clouds,dailyrainin,SoftwareType,DateUTC
2013-05-21 00:02:00,58.3,57.9,29.70,South,180,0.0,2.0,99,0.00,,,0.11,meteohub,2013-05-21 04:02:00,
2013-05-21 00:03:00,58.3,57.9,29.70,South,180,0.0,2.0,99,0.00,,,0.11,meteohub,2013-05-21 04:03:00,
2013-05-21 00:07:00,58.3,57.9,29.70,South,180,0.0,2.0,99,0.00,,,0.00,meteohub,2013-05-21 04:07:00,
2013-05-21 00:13:00,58.1,57.7,29.70,North,0,0.0,0.0,99,0.00,,,0.00,meteohub,2013-05-21 04:13:00,
2013-05-21 00:19:00,58.3,57.9,29.70,SW,225,1.0,0.0,99,0.00,,,0.00,meteohub,2013-05-21 04:19:00,
2013-05-21 00:25:00,58.3,57.9,29.70,North,0,0.0,2.0,99,0.00,,,0.00,meteohub,2013-05-21 04:25:00,
2013-05-21 00:32:00,58.3,57.9,29.70,NE,45,0.0,2.0,99,0.00,,,0.00,meteohub,2013-05-21 04:32:00,
2013-05-21 00:38:00,58.1,57.7,29.70,South,180,0.0,2.0,99,0.00,,,0.00,meteohub,2013-05-21 04:38:00,
2013-05-21 00:44:00,57.7,57.4,29.70,NE,45,0.0,2.0,99,0.00,,,0.00,meteohub,2013-05-21 04:44:00,
2013-05-21 00:50:00,57.6,57.2,29.70,South,180,0.0,2.0,99,0.00,,,0.00,meteohub,2013-05-21 04:50:00,
2013-05-21 00:56:00,57.6,57.2,29.70,South,180,1.0,2.0,99,0.00,,,0.00,meteohub,2013-05-21 04:56:00,
2013-05-21 01:02:00,57.2,56.8,29.70,South,180,0.0,2.0,99,0.00,,,0.00,meteohub,2013-05-21 05:02:00,
2013-05-21 01:07:00,56.8,56.5,29.70,South,180,0.0,2.0,99,0.00,,,0.00,meteohub,2013-05-21 05:07:00,
2013-05-21 01:14:00,56.8,56.5,29.70,North,0,0.0,1.0,99,0.00,,,0.00,meteohub,2013-05-21 05:14:00,
2013-05-21 01:20:00,56.8,56.5,29.70,South,180,0.0,0.0,99,0.00,,,0.00,meteohub,2013-05-21 05:20:00,
2013-05-21 01:26:00,56.7,56.3,29.70,NW,315,1.0,2.0,99,0.00,,,0.00,meteohub,2013-05-21 05:26:00,
2013-05-21 01:32:00,56.7,56.3,29.69,SSW,203,0.0,2.0,99,0.00,,,0.00,meteohub,2013-05-21 05:32:00,
2013-05-21 01:37:00,56.7,56.3,29.69,East,90,0.0,1.0,99,0.00,,,0.00,meteohub,2013-05-21 05:37:00,
2013-05-21 01:43:00,56.7,56.3,29.69,South,180,0.0,2.0,99,0.00,,,0.00,meteohub,2013-05-21 05:43:00,
2013-05-21 01:50:00,56.5,56.1,29.69,North,0,0.0,2.0,99,0.00,,,0.00,meteohub,2013-05-21 05:50:00,
2013-05-21 01:56:00,56.5,56.1,29.70,North,0,0.0,1.0,99,0.00,,,0.00,meteohub,2013-05-21 05:56:00,
2013-05-21 02:02:00,56.8,56.5,29.70,SE,135,2.0,2.0,99,0.00,,,0.00,meteohub,2013-05-21 06:02:00,
2013-05-21 02:07:00,57.2,56.8,29.70,South,180,1.0,2.0,99,0.00,,,0.00,meteohub,2013-05-21 06:07:00,
2013-05-21 02:13:00,57.4,57.0,29.69,SW,225,2.0,2.0,99,0.00,,,0.00,meteohub,2013-05-21 06:13:00,
2013-05-21 02:19:00,57.4,57.0,29.69,East,90,2.0,2.0,99,0.00,,,0.00,meteohub,2013-05-21 06:19:00,
2013-05-21 02:25:00,57.6,57.2,29.69,SE,135,0.0,2.0,99,0.00,,,0.00,meteohub,2013-05-21 06:25:00,
2013-05-21 02:31:00,57.7,57.4,29.69,SW,225,0.0,2.0,99,0.00,,,0.00,meteohub,2013-05-21 06:31:00,
2013-05-21 02:38:00,57.7,57.4,29.69,NE,45,0.0,2.0,99,0.00,,,0.00,meteohub,2013-05-21 06:38:00,
2013-05-21 02:44:00,57.7,57.4,29.69,NE,45,1.0,3.0,99,0.00,,,0.00,meteohub,2013-05-21 06:44:00,
2013-05-21 02:50:00,57.9,57.6,29.69,SE,135,0.0,3.0,99,0.00,,,0.00,meteohub,2013-05-21 06:50:00,
2013-05-21 02:56:00,57.7,57.4,29.69,North,0,0.0,3.0,99,0.00,,,0.00,meteohub,2013-05-21 06:56:00,
2013-05-21 03:02:00,57.7,57.4,29.69,South,180,2.0,2.0,99,0.00,,,0.00,meteohub,2013-05-21 07:02:00,
2013-05-21 03:07:00,57.7,57.4,29.69,South,180,0.0,2.0,99,0.00,,,0.00,meteohub,2013-05-21 07:07:00,
2013-05-21 03:13:00,57.7,57.4,29.68,South,180,0.0,2.0,99,0.00,,,0.00,meteohub,2013-05-21 07:13:00,
2013-05-21 03:19:00,57.6,57.2,29.69,SW,225,2.0,2.0,99,0.00,,,0.00,meteohub,2013-05-21 07:19:00,
2013-05-21 03:26:00,57.6,57.2,29.68,NE,45,0.0,3.0,99,0.00,,,0.00,meteohub,2013-05-21 07:26:00,
2013-05-21 03:32:00,57.2,56.8,29.68,NE,45,0.0,3.0,99,0.00,,,0.00,meteohub,2013-05-21 07:32:00,
2013-05-21 03:38:00,56.8,56.5,29.68,South,180,0.0,2.0,99,0.00,,,0.00,meteohub,2013-05-21 07:38:00,
2013-05-21 03:44:00,56.5,56.1,29.68,South,180,0.0,2.0,99,0.00,,,0.00,meteohub,2013-05-21 07:44:00,
2013-05-21 03:50:00,56.3,55.9,29.68,North,0,0.0,2.0,99,0.00,,,0.00,meteohub,2013-05-21 07:50:00,
2013-05-21 03:57:00,56.3,55.9,29.68,South,180,0.0,1.0,99,0.00,,,0.00,meteohub,2013-05-21 07:57:00,
2013-05-21 04:03:00,56.5,56.1,29.68,South,180,0.0,1.0,99,0.00,,,0.00,meteohub,2013-05-21 08:03:00,
2013-05-21 04:09:00,56.8,56.5,29.68,NE,45,0.0,2.0,99,0.00,,,0.00,meteohub,2013-05-21 08:09:00,
2013-05-21 04:15:00,56.8,56.5,29.68,South,180,0.0,0.0,99,0.00,,,0.00,meteohub,2013-05-21 08:15:00,
2013-05-21 04:21:00,56.7,56.3,29.68,South,180,0.0,2.0,99,0.00,,,0.00,meteohub,2013-05-21 08:21:00,
2013-05-21 04:28:00,56.8,56.5,29.68,South,180,0.0,2.0,99,0.00,,,0.00,meteohub,2013-05-21 08:28:00,
2013-05-21 04:34:00,56.8,56.5,29.67,SW,225,0.0,2.0,99,0.00,,,0.00,meteohub,2013-05-21 08:34:00,
2013-05-21 04:40:00,56.8,56.5,29.67,West,270,0.0,2.0,99,0.00,,,0.00,meteohub,2013-05-21 08:40:00,
2013-05-21 04:46:00,56.8,56.5,29.68,NE,45,1.0,2.0,99,0.00,,,0.00,meteohub,2013-05-21 08:46:00,
2013-05-21 04:52:00,57.0,56.7,29.67,North,0,0.0,2.0,99,0.00,,,0.00,meteohub,2013-05-21 08:52:00,
2013-05-21 04:58:00,56.8,56.5,29.67,NE,45,0.0,2.0,99,0.00,,,0.00,meteohub,2013-05-21 08:58:00,
2013-05-21 05:05:00,57.0,56.7,29.67,NE,45,0.0,2.0,99,0.00,,,0.00,meteohub,2013-05-21 09:05:00,
2013-05-21 05:11:00,56.8,56.5,29.68,South,180,2.0,2.0,99,0.00,,,0.00,meteohub,2013-05-21 09:11:00,
2013-05-21 05:17:00,56.8,56.5,29.68,SE,135,0.0,2.0,99,0.00,,,0.00,meteohub,2013-05-21 09:17:00,
2013-05-21 05:23:00,56.8,56.5,29.67,South,180,1.0,2.0,99,0.00,,,0.00,meteohub,2013-05-21 09:23:00,
2013-05-21 05:29:00,56.7,56.3,29.67,NE,45,0.0,2.0,99,0.00,,,0.00,meteohub,2013-05-21 09:29:00,
2013-05-21 05:36:00,56.3,55.9,29.67,South,180,1.0,2.0,99,0.00,,,0.00,meteohub,2013-05-21 09:36:00,
2013-05-21 05:42:00,56.1,55.8,29.68,South,180,1.0,2.0,99,0.00,,,0.00,meteohub,2013-05-21 09:42:00,
2013-05-21 05:48:00,56.3,55.9,29.68,North,0,1.0,2.0,99,0.00,,,0.00,meteohub,2013-05-21 09:48:00,
2013-05-21 05:54:00,56.3,55.9,29.68,NE,45,2.0,2.0,99,0.00,,,0.00,meteohub,2013-05-21 09:54:00,
2013-05-21 06:00:00,56.3,55.9,29.68,South,180,0.0,2.0,99,0.00,,,0.00,meteohub,2013-05-21 10:00:00,
2013-05-21 06:06:00,56.3,55.9,29.68,South,180,0.0,2.0,99,0.00,,,0.00,meteohub,2013-05-21 10:06:00,
2013-05-21 06:13:00,56.3,55.9,29.68,South,180,2.0,2.0,99,0.00,,,0.00,meteohub,2013-05-21 10:13:00,
2013-05-21 06:19:00,56.3,55.9,29.68,SE,135,1.0,2.0,99,0.00,,,0.00,meteohub,2013-05-21 10:19:00,
2013-05-21 06:25:00,56.5,56.1,29.68,NE,45,2.0,2.0,99,0.00,,,0.00,meteohub,2013-05-21 10:25:00,
2013-05-21 06:31:00,56.5,56.1,29.68,East,90,0.0,2.0,99,0.00,,,0.00,meteohub,2013-05-21 10:31:00,
2013-05-21 06:37:00,56.7,56.3,29.68,SE,135,1.0,2.0,99,0.00,,,0.00,meteohub,2013-05-21 10:37:00,
2013-05-21 06:44:00,56.8,56.5,29.69,South,180,1.0,2.0,99,0.00,,,0.00,meteohub,2013-05-21 10:44:00,
2013-05-21 06:50:00,57.2,56.8,29.69,East,90,0.0,2.0,99,0.00,,,0.00,meteohub,2013-05-21 10:50:00,
2013-05-21 06:56:00,57.4,57.0,29.69,East,90,0.0,2.0,99,0.00,,,0.00,meteohub,2013-05-21 10:56:00,
2013-05-21 07:02:00,57.4,57.0,29.69,NE,45,0.0,2.0,99,0.00,,,0.00,meteohub,2013-05-21 11:02:00,
2013-05-21 07:07:00,57.4,57.0,29.69,NE,45,2.0,2.0,99,0.00,,,0.00,meteohub,2013-05-21 11:07:00,
2013-05-21 07:13:00,57.9,57.6,29.69,East,90,0.0,2.0,99,0.00,,,0.00,meteohub,2013-05-21 11:13:00,
2013-05-21 07:19:00,58.5,58.1,29.69,NE,45,0.0,4.0,99,0.00,,,0.00,meteohub,2013-05-21 11:19:00,
2013-05-21 07:25:00,58.8,58.5,29.69,NE,45,0.0,4.0,99,0.00,,,0.00,meteohub,2013-05-21 11:25:00,
2013-05-21 07:32:00,59.4,59.0,29.69,East,90,1.0,4.0,99,0.00,,,0.00,meteohub,2013-05-21 11:32:00,
2013-05-21 07:38:00,60.1,59.7,29.70,NE,45,1.0,4.0,99,0.00,,,0.00,meteohub,2013-05-21 11:38:00,
2013-05-21 07:44:00,60.6,60.3,29.70,SE,135,0.0,2.0,99,0.00,,,0.00,meteohub,2013-05-21 11:44:00,
2013-05-21 07:50:00,60.8,60.3,29.70,NE,45,2.0,2.0,98,0.00,,,0.00,meteohub,2013-05-21 11:50:00,
2013-05-21 07:56:00,61.9,61.3,29.70,North,0,2.0,2.0,98,0.00,,,0.00,meteohub,2013-05-21 11:56:00,
2013-05-21 08:02:00,62.6,61.7,29.70,North,0,2.0,4.0,97,0.00,,,0.00,meteohub,2013-05-21 12:02:00,
2013-05-21 08:07:00,63.1,62.2,29.70,NE,45,3.0,4.0,97,0.00,,,0.00,meteohub,2013-05-21 12:07:00,
2013-05-21 08:13:00,63.9,63.0,29.70,NE,45,2.0,2.0,97,0.00,,,0.00,meteohub,2013-05-21 12:13:00,
2013-05-21 08:20:00,64.4,64.0,29.70,East,90,1.0,3.0,99,0.00,,,0.00,meteohub,2013-05-21 12:20:00,
2013-05-21 08:26:00,65.1,64.8,29.70,NE,45,3.0,4.0,99,0.00,,,0.00,meteohub,2013-05-21 12:26:00,
2013-05-21 08:32:00,65.5,65.1,29.70,NW,315,2.0,4.0,99,0.00,,,0.00,meteohub,2013-05-21 12:32:00,
2013-05-21 08:37:00,65.8,65.5,29.70,West,270,8.0,8.0,99,0.00,,,0.00,meteohub,2013-05-21 12:37:00,
2013-05-21 08:43:00,66.4,64.6,29.70,East,90,2.0,8.0,94,0.00,,,0.00,meteohub,2013-05-21 12:43:00,
2013-05-21 08:49:00,66.7,64.4,29.70,South,180,2.0,8.0,92,0.00,,,0.00,meteohub,2013-05-21 12:49:00,
2013-05-21 08:56:00,67.8,63.5,29.70,South,180,3.0,8.0,86,0.00,,,0.00,meteohub,2013-05-21 12:56:00,
2013-05-21 09:02:00,68.2,62.8,29.71,SE,135,1.0,8.0,83,0.00,,,0.00,meteohub,2013-05-21 13:02:00,
2013-05-21 09:08:00,68.2,61.7,29.71,South,180,8.0,8.0,80,0.00,,,0.00,meteohub,2013-05-21 13:08:00,
2013-05-21 09:14:00,68.0,61.5,29.70,NE,45,2.0,12.0,80,0.00,,,0.00,meteohub,2013-05-21 13:14:00,
2013-05-21 09:20:00,68.2,61.7,29.71,NW,315,2.0,12.0,80,0.00,,,0.00,meteohub,2013-05-21 13:20:00,
2013-05-21 09:27:00,69.3,62.4,29.70,SW,225,7.0,7.0,79,0.00,,,0.00,meteohub,2013-05-21 13:27:00,
2013-05-21 09:33:00,70.2,61.5,29.70,South,180,4.0,7.0,74,0.00,,,0.00,meteohub,2013-05-21 13:33:00,
2013-05-21 09:39:00,70.7,60.4,29.70,NE,45,4.0,10.0,70,0.00,,,0.00,meteohub,2013-05-21 13:39:00,
2013-05-21 09:45:00,70.7,60.4,29.70,East,90,2.0,10.0,70,0.00,,,0.00,meteohub,2013-05-21 13:45:00,
2013-05-21 09:51:00,73.0,62.2,29.70,North,0,2.0,7.0,69,0.00,,,0.00,meteohub,2013-05-21 13:51:00,
2013-05-21 09:58:00,73.0,62.2,29.70,North,0,2.0,3.0,69,0.00,,,0.00,meteohub,2013-05-21 13:58:00,
2013-05-21 10:04:00,75.0,62.1,29.70,NW,315,2.0,3.0,64,0.00,,,0.00,meteohub,2013-05-21 14:04:00,
2013-05-21 10:11:00,75.7,60.8,29.70,SW,225,7.0,7.0,60,0.00,,,0.00,meteohub,2013-05-21 14:11:00,
2013-05-21 10:17:00,74.5,60.6,29.70,South,180,3.0,7.0,62,0.00,,,0.00,meteohub,2013-05-21 14:17:00,
2013-05-21 10:23:00,75.6,61.2,29.70,South,180,8.0,8.0,61,0.00,,,0.00,meteohub,2013-05-21 14:23:00,
2013-05-21 10:29:00,75.0,61.2,29.70,NE,45,4.0,8.0,62,0.00,,,0.00,meteohub,2013-05-21 14:29:00,
2013-05-21 10:35:00,79.0,59.9,29.70,South,180,8.0,13.0,52,0.00,,,0.00,meteohub,2013-05-21 14:35:00,
2013-05-21 10:42:00,80.4,60.6,29.69,NE,45,6.0,13.0,51,0.00,,,0.00,meteohub,2013-05-21 14:42:00,
2013-05-21 10:48:00,82.6,61.5,29.70,SSE,158,4.0,9.0,49,0.00,,,0.00,meteohub,2013-05-21 14:48:00,
2013-05-21 10:54:00,77.4,58.8,29.70,West,270,8.0,9.0,53,0.00,,,0.00,meteohub,2013-05-21 14:54:00,
2013-05-21 11:00:00,81.5,59.9,29.70,NE,45,7.0,8.0,48,0.00,,,0.00,meteohub,2013-05-21 15:00:00,
2013-05-21 11:06:00,81.3,58.6,29.70,SSW,203,8.0,8.0,46,0.00,,,0.00,meteohub,2013-05-21 15:06:00,
2013-05-21 11:12:00,81.9,57.2,29.70,SW,225,7.0,8.0,43,0.00,,,0.00,meteohub,2013-05-21 15:12:00,
2013-05-21 11:19:00,76.6,58.3,29.70,South,180,4.0,10.0,53,0.00,,,0.00,meteohub,2013-05-21 15:19:00,
2013-05-21 11:25:00,77.4,57.7,29.69,North,0,4.0,10.0,51,0.00,,,0.00,meteohub,2013-05-21 15:25:00,
2013-05-21 11:31:00,83.8,60.3,29.69,East,90,2.0,8.0,45,0.00,,,0.00,meteohub,2013-05-21 15:31:00,
2013-05-21 11:37:00,85.6,59.2,29.69,NE,45,2.0,7.0,41,0.00,,,0.00,meteohub,2013-05-21 15:37:00,
2013-05-21 11:43:00,88.0,57.7,29.69,South,180,3.0,5.0,36,0.00,,,0.00,meteohub,2013-05-21 15:43:00,
2013-05-21 11:49:00,89.4,58.1,29.70,East,90,2.0,6.0,35,0.00,,,0.00,meteohub,2013-05-21 15:49:00,
2013-05-21 11:56:00,92.1,62.1,29.69,NW,315,5.0,6.0,37,0.00,,,0.00,meteohub,2013-05-21 15:56:00,
2013-05-21 12:02:00,88.7,62.1,29.70,East,90,4.0,5.0,41,0.00,,,0.00,meteohub,2013-05-21 16:02:00,
2013-05-21 12:07:00,88.5,62.4,29.69,South,180,4.0,5.0,42,0.00,,,0.00,meteohub,2013-05-21 16:07:00,
2013-05-21 12:13:00,89.8,61.5,29.69,North,0,2.0,5.0,39,0.00,,,0.00,meteohub,2013-05-21 16:13:00,
2013-05-21 12:19:00,86.7,60.8,29.70,SE,135,5.0,5.0,42,0.00,,,0.00,meteohub,2013-05-21 16:19:00,
2013-05-21 12:25:00,82.8,61.7,29.70,NW,315,2.0,6.0,49,0.00,,,0.00,meteohub,2013-05-21 16:25:00,
2013-05-21 12:32:00,87.6,63.7,29.69,SW,225,4.0,6.0,45,0.00,,,0.00,meteohub,2013-05-21 16:32:00,
2013-05-21 12:38:00,87.4,61.5,29.69,West,270,1.0,5.0,42,0.00,,,0.00,meteohub,2013-05-21 16:38:00,
2013-05-21 12:44:00,90.9,62.4,29.69,North,0,7.0,7.0,39,0.00,,,0.00,meteohub,2013-05-21 16:44:00,
2013-05-21 12:50:00,84.6,60.3,29.69,East,90,2.0,7.0,44,0.00,,,0.00,meteohub,2013-05-21 16:50:00,
2013-05-21 12:56:00,81.0,60.1,29.68,North,0,2.0,7.0,49,0.00,,,0.00,meteohub,2013-05-21 16:56:00,
2013-05-21 13:02:00,80.4,61.2,29.69,NW,315,2.0,5.0,52,0.00,,,0.00,meteohub,2013-05-21 17:02:00,
2013-05-21 13:07:00,79.3,61.2,29.69,North,0,2.0,3.0,54,0.00,,,0.00,meteohub,2013-05-21 17:07:00,
2013-05-21 13:13:00,77.7,60.3,29.69,North,0,2.0,3.0,55,0.00,,,0.00,meteohub,2013-05-21 17:13:00,
2013-05-21 13:19:00,77.2,61.3,29.69,NE,45,2.0,4.0,58,0.00,,,0.00,meteohub,2013-05-21 17:19:00,
2013-05-21 13:26:00,76.8,61.9,29.69,North,0,3.0,4.0,60,0.00,,,0.00,meteohub,2013-05-21 17:26:00,
2013-05-21 13:32:00,75.6,61.7,29.68,NW,315,1.0,4.0,62,0.00,,,0.00,meteohub,2013-05-21 17:32:00,
2013-05-21 13:38:00,75.2,62.2,29.68,North,0,0.0,4.0,64,0.00,,,0.00,meteohub,2013-05-21 17:38:00,
2013-05-21 13:44:00,75.2,61.3,29.68,SSW,203,2.0,4.0,62,0.00,,,0.00,meteohub,2013-05-21 17:44:00,
2013-05-21 13:51:00,75.0,61.5,29.69,SE,135,2.0,4.0,63,0.00,,,0.00,meteohub,2013-05-21 17:51:00,
2013-05-21 13:57:00,75.7,64.0,29.68,NE,45,2.0,3.0,67,0.00,,,0.00,meteohub,2013-05-21 17:57:00,
2013-05-21 14:03:00,76.8,67.8,29.67,NW,315,1.0,3.0,74,0.02,,,0.02,meteohub,2013-05-21 18:03:00,
2013-05-21 14:09:00,82.4,68.5,29.67,South,180,1.0,2.0,63,0.02,,,0.02,meteohub,2013-05-21 18:09:00,
2013-05-21 14:15:00,84.7,65.1,29.66,North,0,2.0,4.0,52,0.02,,,0.02,meteohub,2013-05-21 18:15:00,
2013-05-21 14:21:00,85.8,65.7,29.66,NW,315,5.0,5.0,51,0.02,,,0.02,meteohub,2013-05-21 18:21:00,
2013-05-21 14:27:00,86.5,62.6,29.66,West,270,2.0,5.0,45,0.02,,,0.02,meteohub,2013-05-21 18:27:00,
2013-05-21 14:34:00,88.3,61.0,29.66,NNW,338,4.0,5.0,40,0.02,,,0.02,meteohub,2013-05-21 18:34:00,
2013-05-21 14:40:00,85.1,61.3,29.66,NW,315,6.0,6.0,45,0.02,,,0.02,meteohub,2013-05-21 18:40:00,
2013-05-21 14:46:00,79.9,60.1,29.66,North,0,0.0,6.0,51,0.02,,,0.02,meteohub,2013-05-21 18:46:00,
2013-05-21 14:52:00,78.1,62.6,29.66,NE,45,4.0,6.0,59,0.02,,,0.02,meteohub,2013-05-21 18:52:00,
2013-05-21 14:58:00,76.1,63.9,29.66,NW,315,3.0,4.0,66,0.01,,,0.02,meteohub,2013-05-21 18:58:00,
2013-05-21 15:05:00,75.2,61.7,29.66,NE,45,2.0,4.0,63,0.00,,,0.02,meteohub,2013-05-21 19:05:00,
2013-05-21 15:11:00,75.2,63.1,29.65,NE,45,2.0,4.0,66,0.00,,,0.02,meteohub,2013-05-21 19:11:00,
2013-05-21 15:17:00,76.6,64.9,29.65,NE,45,2.0,4.0,67,0.00,,,0.02,meteohub,2013-05-21 19:17:00,
2013-05-21 15:22:00,76.8,64.2,29.65,NW,315,1.0,2.0,65,0.00,,,0.02,meteohub,2013-05-21 19:22:00,
2013-05-21 15:28:00,77.9,65.1,29.65,North,0,1.0,2.0,65,0.00,,,0.02,meteohub,2013-05-21 19:28:00,
2013-05-21 15:34:00,82.2,66.9,29.65,North,0,1.0,2.0,60,0.00,,,0.02,meteohub,2013-05-21 19:34:00,
2013-05-21 15:40:00,83.1,65.3,29.64,NE,45,2.0,2.0,55,0.00,,,0.02,meteohub,2013-05-21 19:40:00,
2013-05-21 15:43:00,85.8,64.9,29.64,West,270,1.0,1.0,50,0.00,,,0.02,meteohub,2013-05-21 19:43:00,
2013-05-21 15:47:00,86.9,63.7,29.63,SW,225,3.0,3.0,46,0.00,,,0.02,meteohub,2013-05-21 19:47:00,
2013-05-21 15:59:00,85.8,62.1,29.62,East,90,2.0,5.0,45,0.00,,,0.02,meteohub,2013-05-21 19:59:00,
2013-05-21 16:05:00,90.0,61.0,29.62,SW,225,3.0,6.0,38,0.00,,,0.02,meteohub,2013-05-21 20:05:00,
2013-05-21 16:11:00,86.5,60.1,29.62,NW,315,2.0,4.0,41,0.00,,,0.02,meteohub,2013-05-21 20:11:00,
2013-05-21 16:17:00,86.5,60.1,29.62,NW,315,2.0,4.0,41,0.00,,,0.02,meteohub,2013-05-21 20:17:00,
2013-05-21 16:22:00,84.6,59.0,29.62,SE,135,1.0,5.0,42,0.00,,,0.02,meteohub,2013-05-21 20:22:00,
2013-05-21 16:29:00,89.2,58.8,29.62,SE,135,1.0,5.0,36,0.00,,,0.02,meteohub,2013-05-21 20:29:00,
2013-05-21 16:35:00,93.7,60.3,29.62,NW,315,2.0,5.0,33,0.00,,,0.02,meteohub,2013-05-21 20:35:00,
2013-05-21 16:41:00,95.0,59.5,29.62,NW,315,4.0,4.0,31,0.00,,,0.02,meteohub,2013-05-21 20:41:00,
2013-05-21 16:47:00,93.6,58.5,29.62,NW,315,3.0,7.0,31,0.00,,,0.02,meteohub,2013-05-21 20:47:00,
2013-05-21 16:52:00,91.2,58.1,29.62,South,180,4.0,7.0,33,0.00,,,0.02,meteohub,2013-05-21 20:52:00,
2013-05-21 16:58:00,91.2,62.1,29.62,North,0,2.0,7.0,38,0.00,,,0.02,meteohub,2013-05-21 20:58:00,
2013-05-21 17:04:00,87.4,62.2,29.62,North,0,5.0,6.0,43,0.00,,,0.02,meteohub,2013-05-21 21:04:00,
2013-05-21 17:10:00,85.3,64.0,29.61,NE,45,3.0,6.0,49,0.00,,,0.02,meteohub,2013-05-21 21:10:00,
2013-05-21 17:17:00,83.8,63.9,29.61,South,180,3.0,7.0,51,0.00,,,0.02,meteohub,2013-05-21 21:17:00,
2013-05-21 17:23:00,82.9,63.0,29.61,East,90,2.0,7.0,51,0.00,,,0.02,meteohub,2013-05-21 21:23:00,
2013-05-21 17:29:00,80.8,62.6,29.60,SE,135,1.0,7.0,54,0.00,,,0.02,meteohub,2013-05-21 21:29:00,
2013-05-21 17:35:00,80.6,64.4,29.60,South,180,2.0,5.0,58,0.00,,,0.02,meteohub,2013-05-21 21:35:00,
2013-05-21 17:41:00,80.1,63.0,29.61,SSW,203,3.0,5.0,56,0.00,,,0.02,meteohub,2013-05-21 21:41:00,
2013-05-21 17:47:00,78.8,62.2,29.60,North,0,2.0,4.0,57,0.00,,,0.02,meteohub,2013-05-21 21:47:00,
2013-05-21 17:52:00,77.7,62.8,29.61,West,270,2.0,4.0,60,0.00,,,0.02,meteohub,2013-05-21 21:52:00,
2013-05-21 17:58:00,76.5,62.4,29.61,NE,45,4.0,4.0,62,0.00,,,0.02,meteohub,2013-05-21 21:58:00,
2013-05-21 18:06:00,73.9,56.3,29.62,SE,135,15.0,15.0,54,0.00,,,0.02,meteohub,2013-05-21 22:06:00,
2013-05-21 18:13:00,70.7,55.6,29.61,East,90,5.0,18.0,59,0.00,,,0.02,meteohub,2013-05-21 22:13:00,
2013-05-21 18:19:00,65.1,57.7,29.62,SE,135,6.0,18.0,77,0.02,,,0.05,meteohub,2013-05-21 22:19:00,
2013-05-21 18:25:00,62.4,56.5,29.62,East,90,4.0,18.0,81,0.11,,,0.13,meteohub,2013-05-21 22:25:00,
2013-05-21 18:31:00,61.3,56.8,29.62,South,180,4.0,11.0,85,0.12,,,0.14,meteohub,2013-05-21 22:31:00,
2013-05-21 18:37:00,61.2,57.2,29.62,North,0,2.0,9.0,87,0.12,,,0.14,meteohub,2013-05-21 22:37:00,
2013-05-21 18:44:00,61.0,58.1,29.62,North,0,3.0,8.0,90,0.12,,,0.14,meteohub,2013-05-21 22:44:00,
2013-05-21 18:50:00,60.8,58.5,29.63,NW,315,2.0,8.0,92,0.13,,,0.15,meteohub,2013-05-21 22:50:00,
2013-05-21 18:56:00,60.8,58.8,29.64,North,0,2.0,4.0,93,0.13,,,0.15,meteohub,2013-05-21 22:56:00,
2013-05-21 19:02:00,60.8,59.0,29.63,NE,45,0.0,4.0,94,0.13,,,0.15,meteohub,2013-05-21 23:02:00,
2013-05-21 19:07:00,60.8,59.0,29.63,NE,45,0.0,2.0,94,0.13,,,0.15,meteohub,2013-05-21 23:07:00,
2013-05-21 19:13:00,61.0,59.5,29.63,NE,45,0.0,2.0,95,0.13,,,0.15,meteohub,2013-05-21 23:13:00,
2013-05-21 19:19:00,61.2,60.1,29.63,North,0,0.0,2.0,96,0.07,,,0.15,meteohub,2013-05-21 23:19:00,
2013-05-21 19:25:00,61.0,59.9,29.64,East,90,0.0,1.0,96,0.01,,,0.15,meteohub,2013-05-21 23:25:00,
2013-05-21 19:30:00,61.2,60.1,29.64,South,180,2.0,2.0,96,0.01,,,0.15,meteohub,2013-05-21 23:30:00,
2013-05-21 19:36:00,61.3,60.3,29.63,NE,45,2.0,2.0,96,0.01,,,0.15,meteohub,2013-05-21 23:36:00,
2013-05-21 19:42:00,61.3,60.3,29.64,North,0,1.0,2.0,96,0.01,,,0.15,meteohub,2013-05-21 23:42:00,
2013-05-21 19:58:00,61.2,60.6,29.67,SE,135,3.0,6.0,98,0.08,,,0.24,meteohub,2013-05-21 23:58:00,
2013-05-21 20:05:00,60.6,60.3,29.68,SE,135,2.0,6.0,99,0.20,,,0.35,meteohub,2013-05-22 00:05:00,
2013-05-21 20:11:00,60.6,60.3,29.67,North,0,2.0,5.0,99,0.25,,,0.40,meteohub,2013-05-22 00:11:00,
2013-05-21 20:17:00,60.8,60.3,29.67,SE,135,2.0,3.0,98,0.26,,,0.40,meteohub,2013-05-22 00:17:00,
2013-05-21 20:22:00,60.8,60.3,29.67,NW,315,3.0,3.0,98,0.27,,,0.43,meteohub,2013-05-22 00:22:00,
2013-05-21 20:28:00,61.0,60.4,29.67,East,90,4.0,4.0,98,0.31,,,0.46,meteohub,2013-05-22 00:28:00,
2013-05-21 20:34:00,60.8,60.3,29.67,NW,315,1.0,5.0,98,0.32,,,0.47,meteohub,2013-05-22 00:34:00,
2013-05-21 20:40:00,60.8,60.3,29.67,SE,135,2.0,7.0,98,0.33,,,0.48,meteohub,2013-05-22 00:40:00,
2013-05-21 20:46:00,60.6,60.3,29.67,North,0,2.0,4.0,99,0.34,,,0.50,meteohub,2013-05-22 00:46:00,
2013-05-21 20:53:00,60.6,60.3,29.66,NE,45,0.0,3.0,99,0.34,,,0.50,meteohub,2013-05-22 00:53:00,
2013-05-21 20:59:00,60.4,60.1,29.66,North,0,3.0,3.0,99,0.21,,,0.50,meteohub,2013-05-22 00:59:00,
2013-05-21 21:05:00,60.3,59.9,29.65,NW,315,1.0,3.0,99,0.13,,,0.50,meteohub,2013-05-22 01:05:00,
2013-05-21 21:11:00,60.3,59.9,29.66,NE,45,2.0,4.0,99,0.09,,,0.50,meteohub,2013-05-22 01:11:00,
2013-05-21 21:17:00,59.9,59.5,29.66,NE,45,2.0,2.0,99,0.08,,,0.50,meteohub,2013-05-22 01:17:00,
2013-05-21 21:22:00,59.9,59.5,29.65,South,180,0.0,2.0,99,0.06,,,0.50,meteohub,2013-05-22 01:22:00,
2013-05-21 21:28:00,59.5,59.2,29.65,NE,45,2.0,2.0,99,0.04,,,0.50,meteohub,2013-05-22 01:28:00,
2013-05-21 21:35:00,59.4,59.0,29.65,North,0,2.0,2.0,99,0.02,,,0.50,meteohub,2013-05-22 01:35:00,
2013-05-21 21:41:00,59.0,58.6,29.65,SE,135,1.0,2.0,99,0.01,,,0.50,meteohub,2013-05-22 01:41:00,
2013-05-21 21:47:00,58.6,58.3,29.65,NE,45,0.0,2.0,99,0.00,,,0.50,meteohub,2013-05-22 01:47:00,
2013-05-21 21:52:00,58.3,57.9,29.65,North,0,2.0,2.0,99,0.00,,,0.50,meteohub,2013-05-22 01:52:00,
2013-05-21 21:58:00,57.9,57.6,29.64,NE,45,2.0,2.0,99,0.00,,,0.50,meteohub,2013-05-22 01:58:00,
2013-05-21 22:04:00,57.9,57.6,29.64,SE,135,0.0,2.0,99,0.00,,,0.50,meteohub,2013-05-22 02:04:00,
2013-05-21 22:10:00,57.9,57.6,29.65,North,0,1.0,2.0,99,0.00,,,0.50,meteohub,2013-05-22 02:10:00,
2013-05-21 22:16:00,57.6,57.2,29.65,NW,315,1.0,2.0,99,0.00,,,0.50,meteohub,2013-05-22 02:16:00,
2013-05-21 22:22:00,57.4,57.0,29.65,NE,45,0.0,2.0,99,0.00,,,0.50,meteohub,2013-05-22 02:22:00,
2013-05-21 22:28:00,57.2,56.8,29.65,South,180,0.0,2.0,99,0.00,,,0.50,meteohub,2013-05-22 02:28:00,
2013-05-21 22:35:00,57.4,57.0,29.66,NE,45,1.0,2.0,99,0.00,,,0.50,meteohub,2013-05-22 02:35:00,
2013-05-21 22:41:00,57.4,57.0,29.66,South,180,0.0,2.0,99,0.00,,,0.50,meteohub,2013-05-22 02:41:00,
2013-05-21 22:47:00,57.2,56.8,29.66,NE,45,1.0,2.0,99,0.00,,,0.50,meteohub,2013-05-22 02:47:00,
2013-05-21 22:53:00,57.2,56.8,29.68,South,180,0.0,2.0,99,0.00,,,0.50,meteohub,2013-05-22 02:53:00,
2013-05-21 22:59:00,57.2,56.8,29.68,North,0,0.0,2.0,99,0.00,,,0.50,meteohub,2013-05-22 02:59:00,
2013-05-21 23:06:00,57.0,56.7,29.68,SE,135,0.0,0.0,99,0.00,,,0.50,meteohub,2013-05-22 03:06:00,
2013-05-21 23:12:00,57.2,56.8,29.68,NE,45,0.0,1.0,99,0.00,,,0.50,meteohub,2013-05-22 03:12:00,
2013-05-21 23:18:00,57.2,56.8,29.68,NW,315,2.0,2.0,99,0.00,,,0.50,meteohub,2013-05-22 03:18:00,
2013-05-21 23:24:00,57.2,56.8,29.68,SE,135,1.0,2.0,99,0.00,,,0.50,meteohub,2013-05-22 03:24:00,
2013-05-21 23:30:00,57.0,56.7,29.68,SSE,158,1.0,2.0,99,0.00,,,0.50,meteohub,2013-05-22 03:30:00,
2013-05-21 23:36:00,57.2,56.8,29.68,North,0,2.0,2.0,99,0.00,,,0.50,meteohub,2013-05-22 03:36:00,
2013-05-21 23:43:00,57.0,56.7,29.67,NW,315,2.0,2.0,99,0.00,,,0.50,meteohub,2013-05-22 03:43:00,
2013-05-21 23:49:00,57.0,56.7,29.67,South,180,0.0,2.0,99,0.00,,,0.50,meteohub,2013-05-22 03:49:00,
2013-05-21 23:55:00,56.8,56.5,29.67,North,0,2.0,2.0,99,0.00,,,0.50,meteohub,2013-05-22 03:55:00,